sensor_id;sensor_type;location;lat;lon;timestamp;P1;durP1;ratioP1;P2;durP2;ratioP2
44165;SDS011;30476;53.468;9.826;2022-11-20T00:01:15;4.30;;;3.93;;
44165;SDS011;30476;53.468;9.826;2022-11-20T00:03:50;4.00;;;3.70;;
44165;SDS011;30476;53.468;9.826;2022-11-20T00:06:17;6.27;;;4.47;;
44165;SDS011;30476;53.468;9.826;2022-11-20T00:08:44;5.30;;;4.87;;
44165;SDS011;30476;53.468;9.826;2022-11-20T00:11:20;5.30;;;4.80;;
44165;SDS011;30476;53.468;9.826;2022-11-20T00:13:49;4.63;;;4.27;;
44165;SDS011;30476;53.468;9.826;2022-11-20T00:16:17;6.70;;;5.30;;
44165;SDS011;30476;53.468;9.826;2022-11-20T00:18:45;5.87;;;4.97;;
44165;SDS011;30476;53.468;9.826;2022-11-20T00:21:13;5.67;;;5.10;;
44165;SDS011;30476;53.468;9.826;2022-11-20T00:23:40;6.50;;;4.73;;
44165;SDS011;30476;53.468;9.826;2022-11-20T00:26:08;6.03;;;5.30;;
44165;SDS011;30476;53.468;9.826;2022-11-20T00:28:35;4.63;;;4.23;;
44165;SDS011;30476;53.468;9.826;2022-11-20T00:31:12;4.97;;;4.53;;
44165;SDS011;30476;53.468;9.826;2022-11-20T00:33:40;6.17;;;4.30;;
44165;SDS011;30476;53.468;9.826;2022-11-20T00:36:08;4.57;;;4.13;;
44165;SDS011;30476;53.468;9.826;2022-11-20T00:38:35;5.83;;;4.70;;
44165;SDS011;30476;53.468;9.826;2022-11-20T00:41:03;5.77;;;4.40;;
44165;SDS011;30476;53.468;9.826;2022-11-20T00:43:31;4.87;;;4.50;;
44165;SDS011;30476;53.468;9.826;2022-11-20T00:46:07;5.13;;;4.63;;
44165;SDS011;30476;53.468;9.826;2022-11-20T00:48:39;4.47;;;4.17;;
44165;SDS011;30476;53.468;9.826;2022-11-20T00:51:05;7.93;;;5.60;;
44165;SDS011;30476;53.468;9.826;2022-11-20T00:53:31;5.17;;;4.37;;
44165;SDS011;30476;53.468;9.826;2022-11-20T00:56:04;4.87;;;4.47;;
44165;SDS011;30476;53.468;9.826;2022-11-20T00:58:33;5.63;;;4.20;;
44165;SDS011;30476;53.468;9.826;2022-11-20T01:01:04;4.33;;;4.00;;
44165;SDS011;30476;53.468;9.826;2022-11-20T01:03:32;6.23;;;5.53;;
44165;SDS011;30476;53.468;9.826;2022-11-20T01:06:02;6.00;;;5.43;;
44165;SDS011;30476;53.468;9.826;2022-11-20T01:08:31;7.10;;;4.80;;
44165;SDS011;30476;53.468;9.826;2022-11-20T01:10:59;6.97;;;6.37;;
44165;SDS011;30476;53.468;9.826;2022-11-20T01:13:26;5.20;;;4.73;;
44165;SDS011;30476;53.468;9.826;2022-11-20T01:18:31;5.30;;;4.30;;
44165;SDS011;30476;53.468;9.826;2022-11-20T01:21:01;4.77;;;4.30;;
44165;SDS011;30476;53.468;9.826;2022-11-20T01:23:34;6.07;;;4.43;;
44165;SDS011;30476;53.468;9.826;2022-11-20T01:26:01;4.30;;;4.00;;
44165;SDS011;30476;53.468;9.826;2022-11-20T01:28:29;5.00;;;4.50;;
44165;SDS011;30476;53.468;9.826;2022-11-20T01:30:55;4.87;;;4.57;;
44165;SDS011;30476;53.468;9.826;2022-11-20T01:33:21;4.97;;;4.33;;
44165;SDS011;30476;53.468;9.826;2022-11-20T01:35:47;5.13;;;4.33;;
44165;SDS011;30476;53.468;9.826;2022-11-20T01:38:14;4.87;;;4.53;;
44165;SDS011;30476;53.468;9.826;2022-11-20T01:40:40;4.67;;;4.10;;
44165;SDS011;30476;53.468;9.826;2022-11-20T01:43:27;4.20;;;3.80;;
44165;SDS011;30476;53.468;9.826;2022-11-20T01:51:13;4.50;;;4.10;;
44165;SDS011;30476;53.468;9.826;2022-11-20T01:53:44;5.00;;;4.60;;
44165;SDS011;30476;53.468;9.826;2022-11-20T01:56:11;4.23;;;3.93;;
44165;SDS011;30476;53.468;9.826;2022-11-20T01:58:39;4.87;;;4.47;;
44165;SDS011;30476;53.468;9.826;2022-11-20T02:01:11;4.50;;;4.10;;
44165;SDS011;30476;53.468;9.826;2022-11-20T02:03:38;4.67;;;4.27;;
44165;SDS011;30476;53.468;9.826;2022-11-20T02:08:51;4.17;;;3.87;;
44165;SDS011;30476;53.468;9.826;2022-11-20T02:11:17;6.00;;;4.37;;
44165;SDS011;30476;53.468;9.826;2022-11-20T02:13:44;6.90;;;4.50;;
44165;SDS011;30476;53.468;9.826;2022-11-20T02:16:12;5.10;;;4.00;;
44165;SDS011;30476;53.468;9.826;2022-11-20T02:18:41;4.43;;;4.03;;
44165;SDS011;30476;53.468;9.826;2022-11-20T02:21:11;6.03;;;3.90;;
44165;SDS011;30476;53.468;9.826;2022-11-20T02:26:24;3.20;;;3.00;;
44165;SDS011;30476;53.468;9.826;2022-11-20T02:28:54;4.23;;;3.93;;
44165;SDS011;30476;53.468;9.826;2022-11-20T02:31:20;5.80;;;4.33;;
44165;SDS011;30476;53.468;9.826;2022-11-20T02:33:45;5.10;;;4.70;;
44165;SDS011;30476;53.468;9.826;2022-11-20T02:36:11;3.97;;;3.70;;
44165;SDS011;30476;53.468;9.826;2022-11-20T02:38:41;4.37;;;3.03;;
44165;SDS011;30476;53.468;9.826;2022-11-20T02:41:08;4.10;;;3.03;;
44165;SDS011;30476;53.468;9.826;2022-11-20T02:43:34;4.73;;;4.07;;
44165;SDS011;30476;53.468;9.826;2022-11-20T02:46:00;3.30;;;3.10;;
44165;SDS011;30476;53.468;9.826;2022-11-20T02:48:25;4.13;;;3.63;;
44165;SDS011;30476;53.468;9.826;2022-11-20T02:50:51;3.67;;;3.40;;
44165;SDS011;30476;53.468;9.826;2022-11-20T02:53:17;4.50;;;3.30;;
44165;SDS011;30476;53.468;9.826;2022-11-20T02:55:43;4.27;;;3.97;;
44165;SDS011;30476;53.468;9.826;2022-11-20T02:58:09;3.63;;;3.27;;
44165;SDS011;30476;53.468;9.826;2022-11-20T03:00:35;3.90;;;3.60;;
44165;SDS011;30476;53.468;9.826;2022-11-20T03:03:00;3.80;;;3.43;;
44165;SDS011;30476;53.468;9.826;2022-11-20T03:05:26;3.83;;;3.53;;
44165;SDS011;30476;53.468;9.826;2022-11-20T03:07:52;4.03;;;3.73;;
44165;SDS011;30476;53.468;9.826;2022-11-20T03:10:17;4.83;;;3.50;;
44165;SDS011;30476;53.468;9.826;2022-11-20T03:12:43;3.07;;;2.87;;
44165;SDS011;30476;53.468;9.826;2022-11-20T03:15:09;3.87;;;3.57;;
44165;SDS011;30476;53.468;9.826;2022-11-20T03:17:35;8.40;;;4.10;;
44165;SDS011;30476;53.468;9.826;2022-11-20T03:20:01;4.20;;;3.30;;
44165;SDS011;30476;53.468;9.826;2022-11-20T03:22:28;6.30;;;3.30;;
44165;SDS011;30476;53.468;9.826;2022-11-20T03:24:55;3.83;;;3.50;;
44165;SDS011;30476;53.468;9.826;2022-11-20T03:27:21;3.20;;;3.00;;
44165;SDS011;30476;53.468;9.826;2022-11-20T03:29:46;4.27;;;3.00;;
44165;SDS011;30476;53.468;9.826;2022-11-20T03:32:12;5.37;;;4.70;;
44165;SDS011;30476;53.468;9.826;2022-11-20T03:34:38;4.60;;;3.10;;
44165;SDS011;30476;53.468;9.826;2022-11-20T03:37:03;3.67;;;3.13;;
44165;SDS011;30476;53.468;9.826;2022-11-20T03:39:29;3.90;;;3.60;;
44165;SDS011;30476;53.468;9.826;2022-11-20T03:41:55;4.27;;;3.23;;
44165;SDS011;30476;53.468;9.826;2022-11-20T03:44:21;3.50;;;3.23;;
44165;SDS011;30476;53.468;9.826;2022-11-20T03:46:47;4.80;;;3.50;;
44165;SDS011;30476;53.468;9.826;2022-11-20T03:49:13;3.60;;;3.30;;
44165;SDS011;30476;53.468;9.826;2022-11-20T03:51:38;3.67;;;3.33;;
44165;SDS011;30476;53.468;9.826;2022-11-20T03:54:05;3.70;;;3.37;;
44165;SDS011;30476;53.468;9.826;2022-11-20T03:56:34;3.40;;;3.20;;
44165;SDS011;30476;53.468;9.826;2022-11-20T03:59:01;4.10;;;3.77;;
44165;SDS011;30476;53.468;9.826;2022-11-20T04:01:29;3.30;;;3.00;;
44165;SDS011;30476;53.468;9.826;2022-11-20T04:03:56;3.63;;;3.10;;
44165;SDS011;30476;53.468;9.826;2022-11-20T04:06:24;4.30;;;3.93;;
44165;SDS011;30476;53.468;9.826;2022-11-20T04:08:53;4.00;;;3.70;;
44165;SDS011;30476;53.468;9.826;2022-11-20T04:11:22;3.97;;;3.17;;
44165;SDS011;30476;53.468;9.826;2022-11-20T04:13:50;3.93;;;3.53;;
44165;SDS011;30476;53.468;9.826;2022-11-20T04:16:20;4.10;;;3.50;;
44165;SDS011;30476;53.468;9.826;2022-11-20T04:18:58;4.20;;;3.77;;
44165;SDS011;30476;53.468;9.826;2022-11-20T04:21:25;4.57;;;4.13;;
44165;SDS011;30476;53.468;9.826;2022-11-20T04:23:52;4.33;;;3.93;;
44165;SDS011;30476;53.468;9.826;2022-11-20T04:26:18;7.30;;;4.50;;
44165;SDS011;30476;53.468;9.826;2022-11-20T04:28:45;4.77;;;4.37;;
44165;SDS011;30476;53.468;9.826;2022-11-20T04:31:12;3.77;;;3.40;;
44165;SDS011;30476;53.468;9.826;2022-11-20T04:33:40;4.00;;;3.70;;
44165;SDS011;30476;53.468;9.826;2022-11-20T04:36:16;4.40;;;4.10;;
44165;SDS011;30476;53.468;9.826;2022-11-20T04:39:00;5.10;;;3.50;;
44165;SDS011;30476;53.468;9.826;2022-11-20T04:41:29;4.37;;;3.90;;
44165;SDS011;30476;53.468;9.826;2022-11-20T04:43:57;4.10;;;3.70;;
44165;SDS011;30476;53.468;9.826;2022-11-20T04:46:27;5.13;;;4.57;;
44165;SDS011;30476;53.468;9.826;2022-11-20T04:48:54;4.50;;;4.10;;
44165;SDS011;30476;53.468;9.826;2022-11-20T04:51:20;4.10;;;3.67;;
44165;SDS011;30476;53.468;9.826;2022-11-20T04:53:46;3.70;;;3.40;;
44165;SDS011;30476;53.468;9.826;2022-11-20T04:56:12;4.10;;;3.80;;
44165;SDS011;30476;53.468;9.826;2022-11-20T04:58:38;4.17;;;3.87;;
44165;SDS011;30476;53.468;9.826;2022-11-20T05:01:05;6.30;;;4.87;;
44165;SDS011;30476;53.468;9.826;2022-11-20T05:03:32;5.00;;;4.30;;
44165;SDS011;30476;53.468;9.826;2022-11-20T05:06:05;5.93;;;4.30;;
44165;SDS011;30476;53.468;9.826;2022-11-20T05:08:32;5.43;;;3.60;;
44165;SDS011;30476;53.468;9.826;2022-11-20T05:11:03;4.93;;;4.60;;
44165;SDS011;30476;53.468;9.826;2022-11-20T05:13:30;4.43;;;4.03;;
44165;SDS011;30476;53.468;9.826;2022-11-20T05:16:00;5.37;;;4.70;;
44165;SDS011;30476;53.468;9.826;2022-11-20T05:18:27;5.23;;;4.73;;
44165;SDS011;30476;53.468;9.826;2022-11-20T05:20:56;8.43;;;4.90;;
44165;SDS011;30476;53.468;9.826;2022-11-20T05:23:22;5.20;;;4.70;;
44165;SDS011;30476;53.468;9.826;2022-11-20T05:25:51;4.93;;;4.53;;
44165;SDS011;30476;53.468;9.826;2022-11-20T05:28:21;5.27;;;4.77;;
44165;SDS011;30476;53.468;9.826;2022-11-20T05:30:48;4.90;;;4.40;;
44165;SDS011;30476;53.468;9.826;2022-11-20T05:33:14;6.70;;;5.50;;
44165;SDS011;30476;53.468;9.826;2022-11-20T05:35:40;5.17;;;4.50;;
44165;SDS011;30476;53.468;9.826;2022-11-20T05:38:06;6.63;;;6.13;;
44165;SDS011;30476;53.468;9.826;2022-11-20T05:40:31;5.03;;;4.63;;
44165;SDS011;30476;53.468;9.826;2022-11-20T05:42:57;5.53;;;4.80;;
44165;SDS011;30476;53.468;9.826;2022-11-20T05:45:24;6.13;;;5.43;;
44165;SDS011;30476;53.468;9.826;2022-11-20T05:47:50;5.30;;;4.67;;
44165;SDS011;30476;53.468;9.826;2022-11-20T05:50:15;5.57;;;5.13;;
44165;SDS011;30476;53.468;9.826;2022-11-20T05:52:41;6.50;;;5.30;;
44165;SDS011;30476;53.468;9.826;2022-11-20T05:55:07;5.47;;;5.03;;
44165;SDS011;30476;53.468;9.826;2022-11-20T05:57:33;5.17;;;4.67;;
44165;SDS011;30476;53.468;9.826;2022-11-20T05:59:58;6.53;;;5.93;;
44165;SDS011;30476;53.468;9.826;2022-11-20T06:02:24;5.27;;;4.87;;
44165;SDS011;30476;53.468;9.826;2022-11-20T06:04:49;8.13;;;7.37;;
44165;SDS011;30476;53.468;9.826;2022-11-20T06:07:15;7.20;;;6.00;;
44165;SDS011;30476;53.468;9.826;2022-11-20T06:09:41;5.33;;;4.93;;
44165;SDS011;30476;53.468;9.826;2022-11-20T06:12:07;7.77;;;6.40;;
44165;SDS011;30476;53.468;9.826;2022-11-20T06:14:33;5.40;;;4.90;;
44165;SDS011;30476;53.468;9.826;2022-11-20T06:16:59;6.13;;;5.53;;
44165;SDS011;30476;53.468;9.826;2022-11-20T06:19:24;7.33;;;6.00;;
44165;SDS011;30476;53.468;9.826;2022-11-20T06:21:50;8.40;;;5.70;;
44165;SDS011;30476;53.468;9.826;2022-11-20T06:24:16;6.30;;;5.67;;
44165;SDS011;30476;53.468;9.826;2022-11-20T06:26:42;7.10;;;5.90;;
44165;SDS011;30476;53.468;9.826;2022-11-20T06:29:08;6.20;;;5.70;;
44165;SDS011;30476;53.468;9.826;2022-11-20T06:31:34;6.97;;;6.13;;
44165;SDS011;30476;53.468;9.826;2022-11-20T06:34:05;7.37;;;5.90;;
44165;SDS011;30476;53.468;9.826;2022-11-20T06:36:31;7.07;;;6.37;;
44165;SDS011;30476;53.468;9.826;2022-11-20T06:38:58;6.33;;;5.70;;
44165;SDS011;30476;53.468;9.826;2022-11-20T06:41:24;7.33;;;6.57;;
44165;SDS011;30476;53.468;9.826;2022-11-20T06:43:50;6.97;;;6.40;;
44165;SDS011;30476;53.468;9.826;2022-11-20T06:46:17;7.23;;;6.60;;
44165;SDS011;30476;53.468;9.826;2022-11-20T06:48:44;8.50;;;6.80;;
44165;SDS011;30476;53.468;9.826;2022-11-20T06:51:10;7.40;;;6.70;;
44165;SDS011;30476;53.468;9.826;2022-11-20T06:53:37;9.10;;;7.17;;
44165;SDS011;30476;53.468;9.826;2022-11-20T06:56:03;7.97;;;7.17;;
44165;SDS011;30476;53.468;9.826;2022-11-20T06:58:30;8.43;;;7.20;;
44165;SDS011;30476;53.468;9.826;2022-11-20T07:01:00;8.17;;;7.37;;
44165;SDS011;30476;53.468;9.826;2022-11-20T07:03:27;8.87;;;7.97;;
44165;SDS011;30476;53.468;9.826;2022-11-20T07:05:56;10.93;;;7.50;;
44165;SDS011;30476;53.468;9.826;2022-11-20T07:08:23;10.37;;;9.47;;
44165;SDS011;30476;53.468;9.826;2022-11-20T07:10:49;8.60;;;7.80;;
44165;SDS011;30476;53.468;9.826;2022-11-20T07:13:15;9.10;;;8.03;;
44165;SDS011;30476;53.468;9.826;2022-11-20T07:15:41;8.30;;;6.73;;
44165;SDS011;30476;53.468;9.826;2022-11-20T07:18:07;10.00;;;8.40;;
44165;SDS011;30476;53.468;9.826;2022-11-20T07:20:33;10.17;;;9.30;;
44165;SDS011;30476;53.468;9.826;2022-11-20T07:22:59;10.10;;;9.10;;
44165;SDS011;30476;53.468;9.826;2022-11-20T07:25:25;10.33;;;8.67;;
44165;SDS011;30476;53.468;9.826;2022-11-20T07:27:52;11.13;;;8.33;;
44165;SDS011;30476;53.468;9.826;2022-11-20T07:30:18;8.77;;;7.90;;
44165;SDS011;30476;53.468;9.826;2022-11-20T07:32:47;8.73;;;7.93;;
44165;SDS011;30476;53.468;9.826;2022-11-20T07:35:16;8.30;;;7.50;;
44165;SDS011;30476;53.468;9.826;2022-11-20T07:37:42;7.73;;;6.60;;
44165;SDS011;30476;53.468;9.826;2022-11-20T07:40:08;9.57;;;8.63;;
44165;SDS011;30476;53.468;9.826;2022-11-20T07:42:34;9.77;;;7.70;;
44165;SDS011;30476;53.468;9.826;2022-11-20T07:45:00;8.50;;;7.70;;
44165;SDS011;30476;53.468;9.826;2022-11-20T07:47:26;9.53;;;6.87;;
44165;SDS011;30476;53.468;9.826;2022-11-20T07:49:52;10.70;;;6.60;;
44165;SDS011;30476;53.468;9.826;2022-11-20T07:52:17;11.00;;;8.50;;
44165;SDS011;30476;53.468;9.826;2022-11-20T07:54:43;9.30;;;8.27;;
44165;SDS011;30476;53.468;9.826;2022-11-20T07:57:09;8.73;;;7.70;;
44165;SDS011;30476;53.468;9.826;2022-11-20T07:59:35;10.00;;;8.60;;
44165;SDS011;30476;53.468;9.826;2022-11-20T08:02:02;10.03;;;7.50;;
44165;SDS011;30476;53.468;9.826;2022-11-20T08:04:27;8.77;;;7.90;;
44165;SDS011;30476;53.468;9.826;2022-11-20T08:06:53;9.10;;;8.17;;
44165;SDS011;30476;53.468;9.826;2022-11-20T08:09:19;7.77;;;7.00;;
44165;SDS011;30476;53.468;9.826;2022-11-20T08:11:45;9.60;;;8.20;;
44165;SDS011;30476;53.468;9.826;2022-11-20T08:14:29;9.30;;;8.23;;
44165;SDS011;30476;53.468;9.826;2022-11-20T08:16:55;9.77;;;8.87;;
44165;SDS011;30476;53.468;9.826;2022-11-20T08:19:20;10.97;;;8.77;;
44165;SDS011;30476;53.468;9.826;2022-11-20T08:21:46;10.50;;;8.93;;
44165;SDS011;30476;53.468;9.826;2022-11-20T08:24:12;8.40;;;7.57;;
44165;SDS011;30476;53.468;9.826;2022-11-20T08:26:39;10.67;;;9.10;;
44165;SDS011;30476;53.468;9.826;2022-11-20T08:29:05;9.97;;;8.93;;
44165;SDS011;30476;53.468;9.826;2022-11-20T08:31:31;8.70;;;7.77;;
44165;SDS011;30476;53.468;9.826;2022-11-20T08:33:58;7.30;;;6.70;;
44165;SDS011;30476;53.468;9.826;2022-11-20T08:36:23;9.00;;;7.63;;
44165;SDS011;30476;53.468;9.826;2022-11-20T08:38:50;8.17;;;7.37;;
44165;SDS011;30476;53.468;9.826;2022-11-20T08:41:21;8.03;;;7.13;;
44165;SDS011;30476;53.468;9.826;2022-11-20T08:43:57;8.07;;;7.23;;
44165;SDS011;30476;53.468;9.826;2022-11-20T08:46:36;11.17;;;8.00;;
44165;SDS011;30476;53.468;9.826;2022-11-20T08:49:06;11.17;;;8.23;;
44165;SDS011;30476;53.468;9.826;2022-11-20T08:51:34;8.17;;;7.43;;
44165;SDS011;30476;53.468;9.826;2022-11-20T08:54:01;8.17;;;7.20;;
44165;SDS011;30476;53.468;9.826;2022-11-20T08:56:27;7.60;;;6.90;;
44165;SDS011;30476;53.468;9.826;2022-11-20T08:58:53;8.80;;;6.80;;
44165;SDS011;30476;53.468;9.826;2022-11-20T09:01:20;6.63;;;6.00;;
44165;SDS011;30476;53.468;9.826;2022-11-20T09:03:46;7.37;;;6.67;;
44165;SDS011;30476;53.468;9.826;2022-11-20T09:06:13;9.27;;;6.70;;
44165;SDS011;30476;53.468;9.826;2022-11-20T09:08:39;9.10;;;6.93;;
44165;SDS011;30476;53.468;9.826;2022-11-20T09:11:05;7.40;;;6.50;;
44165;SDS011;30476;53.468;9.826;2022-11-20T09:13:33;7.20;;;5.80;;
44165;SDS011;30476;53.468;9.826;2022-11-20T09:16:07;5.80;;;5.10;;
44165;SDS011;30476;53.468;9.826;2022-11-20T09:18:34;5.17;;;4.73;;
44165;SDS011;30476;53.468;9.826;2022-11-20T09:21:08;6.43;;;4.77;;
44165;SDS011;30476;53.468;9.826;2022-11-20T09:23:36;5.27;;;4.80;;
44165;SDS011;30476;53.468;9.826;2022-11-20T09:26:03;6.47;;;5.50;;
44165;SDS011;30476;53.468;9.826;2022-11-20T09:28:30;5.70;;;5.07;;
44165;SDS011;30476;53.468;9.826;2022-11-20T09:30:57;5.00;;;4.60;;
44165;SDS011;30476;53.468;9.826;2022-11-20T09:33:23;5.03;;;4.47;;
44165;SDS011;30476;53.468;9.826;2022-11-20T09:35:49;4.50;;;4.10;;
44165;SDS011;30476;53.468;9.826;2022-11-20T09:38:15;5.07;;;4.20;;
44165;SDS011;30476;53.468;9.826;2022-11-20T09:40:45;6.20;;;4.90;;
44165;SDS011;30476;53.468;9.826;2022-11-20T09:49:03;5.53;;;5.03;;
44165;SDS011;30476;53.468;9.826;2022-11-20T09:52:09;4.93;;;4.53;;
44165;SDS011;30476;53.468;9.826;2022-11-20T09:54:58;4.67;;;4.37;;
44165;SDS011;30476;53.468;9.826;2022-11-20T09:57:46;5.60;;;5.10;;
44165;SDS011;30476;53.468;9.826;2022-11-20T10:00:14;4.73;;;4.23;;
44165;SDS011;30476;53.468;9.826;2022-11-20T10:02:42;4.70;;;4.40;;
44165;SDS011;30476;53.468;9.826;2022-11-20T10:05:35;5.93;;;5.37;;
44165;SDS011;30476;53.468;9.826;2022-11-20T10:08:22;4.87;;;4.57;;
44165;SDS011;30476;53.468;9.826;2022-11-20T10:30:12;4.73;;;4.43;;
44165;SDS011;30476;53.468;9.826;2022-11-20T10:33:27;4.17;;;3.83;;
44165;SDS011;30476;53.468;9.826;2022-11-20T10:35:37;3.80;;;3.50;;
44165;SDS011;30476;53.468;9.826;2022-11-20T10:38:20;4.67;;;4.27;;
44165;SDS011;30476;53.468;9.826;2022-11-20T10:40:55;4.67;;;4.27;;
44165;SDS011;30476;53.468;9.826;2022-11-20T10:43:44;4.27;;;3.97;;
44165;SDS011;30476;53.468;9.826;2022-11-20T10:46:33;3.70;;;3.47;;
44165;SDS011;30476;53.468;9.826;2022-11-20T10:49:04;4.20;;;3.80;;
44165;SDS011;30476;53.468;9.826;2022-11-20T10:51:46;3.03;;;2.83;;
44165;SDS011;30476;53.468;9.826;2022-11-20T10:54:36;4.10;;;3.67;;
44165;SDS011;30476;53.468;9.826;2022-11-20T10:57:17;3.10;;;2.90;;
44165;SDS011;30476;53.468;9.826;2022-11-20T11:00:10;4.27;;;3.87;;
44165;SDS011;30476;53.468;9.826;2022-11-20T11:02:39;3.00;;;2.80;;
44165;SDS011;30476;53.468;9.826;2022-11-20T11:05:24;3.57;;;3.27;;
44165;SDS011;30476;53.468;9.826;2022-11-20T11:08:04;3.23;;;2.93;;
44165;SDS011;30476;53.468;9.826;2022-11-20T11:10:37;3.70;;;3.40;;
44165;SDS011;30476;53.468;9.826;2022-11-20T11:13:22;3.60;;;3.30;;
44165;SDS011;30476;53.468;9.826;2022-11-20T11:15:49;5.37;;;4.90;;
44165;SDS011;30476;53.468;9.826;2022-11-20T11:20:50;2.67;;;2.47;;
44165;SDS011;30476;53.468;9.826;2022-11-20T11:26:21;2.60;;;2.30;;
44165;SDS011;30476;53.468;9.826;2022-11-20T11:29:01;2.67;;;2.47;;
44165;SDS011;30476;53.468;9.826;2022-11-20T11:34:05;2.73;;;2.53;;
44165;SDS011;30476;53.468;9.826;2022-11-20T11:36:32;2.90;;;2.40;;
44165;SDS011;30476;53.468;9.826;2022-11-20T11:38:59;2.60;;;2.40;;
44165;SDS011;30476;53.468;9.826;2022-11-20T11:41:29;2.53;;;2.33;;
44165;SDS011;30476;53.468;9.826;2022-11-20T11:44:48;2.67;;;2.50;;
44165;SDS011;30476;53.468;9.826;2022-11-20T11:47:19;3.77;;;3.47;;
44165;SDS011;30476;53.468;9.826;2022-11-20T11:50:00;3.47;;;3.17;;
44165;SDS011;30476;53.468;9.826;2022-11-20T11:53:21;3.53;;;3.23;;
44165;SDS011;30476;53.468;9.826;2022-11-20T11:55:55;4.07;;;3.77;;
44165;SDS011;30476;53.468;9.826;2022-11-20T12:03:36;3.80;;;3.60;;
44165;SDS011;30476;53.468;9.826;2022-11-20T12:06:13;3.60;;;3.40;;
44165;SDS011;30476;53.468;9.826;2022-11-20T12:08:49;3.33;;;3.13;;
44165;SDS011;30476;53.468;9.826;2022-11-20T12:11:24;3.67;;;3.47;;
44165;SDS011;30476;53.468;9.826;2022-11-20T12:13:58;3.43;;;3.23;;
44165;SDS011;30476;53.468;9.826;2022-11-20T12:16:30;3.83;;;3.63;;
44165;SDS011;30476;53.468;9.826;2022-11-20T12:19:01;3.50;;;3.30;;
44165;SDS011;30476;53.468;9.826;2022-11-20T12:24:22;3.30;;;3.10;;
44165;SDS011;30476;53.468;9.826;2022-11-20T12:32:33;3.30;;;3.10;;
44165;SDS011;30476;53.468;9.826;2022-11-20T12:38:13;3.03;;;2.93;;
44165;SDS011;30476;53.468;9.826;2022-11-20T12:44:40;5.77;;;5.17;;
44165;SDS011;30476;53.468;9.826;2022-11-20T13:01:50;3.40;;;3.10;;
44165;SDS011;30476;53.468;9.826;2022-11-20T13:07:01;2.50;;;2.30;;
44165;SDS011;30476;53.468;9.826;2022-11-20T13:09:30;2.97;;;2.77;;
44165;SDS011;30476;53.468;9.826;2022-11-20T13:17:51;2.97;;;2.27;;
44165;SDS011;30476;53.468;9.826;2022-11-20T13:20:21;2.43;;;2.23;;
44165;SDS011;30476;53.468;9.826;2022-11-20T13:22:48;2.90;;;2.70;;
44165;SDS011;30476;53.468;9.826;2022-11-20T13:25:24;3.00;;;2.80;;
44165;SDS011;30476;53.468;9.826;2022-11-20T13:27:55;3.80;;;3.50;;
44165;SDS011;30476;53.468;9.826;2022-11-20T13:30:25;5.77;;;3.93;;
44165;SDS011;30476;53.468;9.826;2022-11-20T13:35:29;3.40;;;3.10;;
44165;SDS011;30476;53.468;9.826;2022-11-20T13:38:21;3.23;;;3.03;;
44165;SDS011;30476;53.468;9.826;2022-11-20T13:40:55;2.50;;;2.30;;
44165;SDS011;30476;53.468;9.826;2022-11-20T13:45:55;2.40;;;2.20;;
44165;SDS011;30476;53.468;9.826;2022-11-20T13:48:22;2.77;;;2.57;;
44165;SDS011;30476;53.468;9.826;2022-11-20T13:53:33;2.70;;;2.50;;
44165;SDS011;30476;53.468;9.826;2022-11-20T13:56:40;2.70;;;2.50;;
44165;SDS011;30476;53.468;9.826;2022-11-20T13:59:33;2.43;;;2.23;;
44165;SDS011;30476;53.468;9.826;2022-11-20T14:02:22;2.37;;;2.27;;
44165;SDS011;30476;53.468;9.826;2022-11-20T14:04:53;3.40;;;3.20;;
44165;SDS011;30476;53.468;9.826;2022-11-20T14:07:24;3.17;;;2.60;;
44165;SDS011;30476;53.468;9.826;2022-11-20T14:09:58;2.33;;;2.23;;
44165;SDS011;30476;53.468;9.826;2022-11-20T14:12:27;2.97;;;2.77;;
44165;SDS011;30476;53.468;9.826;2022-11-20T14:14:55;2.00;;;1.80;;
44165;SDS011;30476;53.468;9.826;2022-11-20T14:17:29;2.20;;;2.10;;
44165;SDS011;30476;53.468;9.826;2022-11-20T14:19:58;4.50;;;2.53;;
44165;SDS011;30476;53.468;9.826;2022-11-20T14:22:49;1.90;;;1.80;;
44165;SDS011;30476;53.468;9.826;2022-11-20T14:27:42;2.13;;;2.03;;
44165;SDS011;30476;53.468;9.826;2022-11-20T14:30:13;2.40;;;2.30;;
44165;SDS011;30476;53.468;9.826;2022-11-20T14:32:41;2.00;;;1.90;;
44165;SDS011;30476;53.468;9.826;2022-11-20T14:35:08;2.50;;;2.30;;
44165;SDS011;30476;53.468;9.826;2022-11-20T14:37:39;3.10;;;2.80;;
44165;SDS011;30476;53.468;9.826;2022-11-20T14:42:53;3.40;;;3.20;;
44165;SDS011;30476;53.468;9.826;2022-11-20T14:45:19;3.67;;;3.27;;
44165;SDS011;30476;53.468;9.826;2022-11-20T14:47:45;3.47;;;3.17;;
44165;SDS011;30476;53.468;9.826;2022-11-20T14:50:19;4.47;;;3.23;;
44165;SDS011;30476;53.468;9.826;2022-11-20T14:52:50;5.43;;;4.23;;
44165;SDS011;30476;53.468;9.826;2022-11-20T14:55:27;6.60;;;3.13;;
44165;SDS011;30476;53.468;9.826;2022-11-20T14:58:05;3.67;;;3.37;;
44165;SDS011;30476;53.468;9.826;2022-11-20T15:00:52;3.80;;;3.50;;
44165;SDS011;30476;53.468;9.826;2022-11-20T15:03:23;9.13;;;4.60;;
44165;SDS011;30476;53.468;9.826;2022-11-20T15:05:55;7.10;;;6.47;;
44165;SDS011;30476;53.468;9.826;2022-11-20T15:08:21;8.27;;;6.97;;
44165;SDS011;30476;53.468;9.826;2022-11-20T15:10:48;6.20;;;5.60;;
44165;SDS011;30476;53.468;9.826;2022-11-20T15:16:02;5.00;;;4.60;;
44165;SDS011;30476;53.468;9.826;2022-11-20T15:18:36;4.10;;;3.70;;
44165;SDS011;30476;53.468;9.826;2022-11-20T15:21:10;4.73;;;3.90;;
44165;SDS011;30476;53.468;9.826;2022-11-20T15:23:38;6.40;;;5.37;;
44165;SDS011;30476;53.468;9.826;2022-11-20T15:26:04;4.50;;;4.07;;
44165;SDS011;30476;53.468;9.826;2022-11-20T15:28:34;5.10;;;4.40;;
44165;SDS011;30476;53.468;9.826;2022-11-20T15:31:02;6.37;;;3.77;;
44165;SDS011;30476;53.468;9.826;2022-11-20T15:33:29;3.87;;;3.57;;
44165;SDS011;30476;53.468;9.826;2022-11-20T15:35:56;4.50;;;3.80;;
44165;SDS011;30476;53.468;9.826;2022-11-20T15:38:22;4.40;;;4.07;;
44165;SDS011;30476;53.468;9.826;2022-11-20T15:40:48;4.70;;;4.27;;
44165;SDS011;30476;53.468;9.826;2022-11-20T15:43:13;4.83;;;4.43;;
44165;SDS011;30476;53.468;9.826;2022-11-20T15:48:19;5.73;;;5.23;;
44165;SDS011;30476;53.468;9.826;2022-11-20T15:53:39;5.90;;;5.30;;
44165;SDS011;30476;53.468;9.826;2022-11-20T15:56:13;7.60;;;6.40;;
44165;SDS011;30476;53.468;9.826;2022-11-20T15:58:40;9.10;;;7.00;;
44165;SDS011;30476;53.468;9.826;2022-11-20T16:01:09;7.17;;;6.50;;
44165;SDS011;30476;53.468;9.826;2022-11-20T16:03:37;6.70;;;6.03;;
44165;SDS011;30476;53.468;9.826;2022-11-20T16:06:02;5.90;;;5.40;;
44165;SDS011;30476;53.468;9.826;2022-11-20T16:08:28;6.60;;;6.00;;
44165;SDS011;30476;53.468;9.826;2022-11-20T16:10:54;4.93;;;4.53;;
44165;SDS011;30476;53.468;9.826;2022-11-20T16:13:20;5.00;;;3.93;;
44165;SDS011;30476;53.468;9.826;2022-11-20T16:16:07;3.43;;;3.23;;
44165;SDS011;30476;53.468;9.826;2022-11-20T16:18:43;3.70;;;3.47;;
44165;SDS011;30476;53.468;9.826;2022-11-20T16:21:10;4.23;;;3.83;;
44165;SDS011;30476;53.468;9.826;2022-11-20T16:23:37;2.90;;;2.80;;
44165;SDS011;30476;53.468;9.826;2022-11-20T16:26:13;3.40;;;3.10;;
44165;SDS011;30476;53.468;9.826;2022-11-20T16:28:43;3.37;;;3.10;;
44165;SDS011;30476;53.468;9.826;2022-11-20T16:31:10;3.27;;;3.07;;
44165;SDS011;30476;53.468;9.826;2022-11-20T16:33:37;3.10;;;2.53;;
44165;SDS011;30476;53.468;9.826;2022-11-20T16:36:08;3.40;;;2.87;;
44165;SDS011;30476;53.468;9.826;2022-11-20T16:38:35;2.97;;;2.67;;
44165;SDS011;30476;53.468;9.826;2022-11-20T16:41:01;3.40;;;3.10;;
44165;SDS011;30476;53.468;9.826;2022-11-20T16:43:27;4.23;;;3.83;;
44165;SDS011;30476;53.468;9.826;2022-11-20T16:45:53;2.83;;;2.63;;
44165;SDS011;30476;53.468;9.826;2022-11-20T16:48:18;5.13;;;3.67;;
44165;SDS011;30476;53.468;9.826;2022-11-20T16:50:47;4.60;;;4.20;;
44165;SDS011;30476;53.468;9.826;2022-11-20T16:53:15;5.97;;;3.70;;
44165;SDS011;30476;53.468;9.826;2022-11-20T16:55:41;4.10;;;3.70;;